createdAt,value
2023-04-04T00:00:32.654Z,1025.327773064
2023-04-04T00:01:32.670Z,1025.2261816999999
2023-04-04T00:02:32.734Z,1025.4293644279999
2023-04-04T00:03:33.643Z,1025.2261816999999
2023-04-04T00:04:32.773Z,1025.4293644279999
2023-04-04T00:05:32.680Z,1025.4293644279999
2023-04-04T00:06:32.672Z,1025.327773064
2023-04-04T00:07:32.670Z,1025.124590336
2023-04-04T00:08:32.641Z,1025.4293644279999
2023-04-04T00:09:32.678Z,1025.2261816999999
2023-04-04T00:10:32.616Z,1025.124590336
2023-04-04T00:11:32.658Z,1025.327773064
2023-04-04T00:12:32.707Z,1025.4293644279999
2023-04-04T00:13:32.675Z,1025.4293644279999
2023-04-04T00:14:32.631Z,1025.124590336
2023-04-04T00:15:32.675Z,1025.2261816999999
2023-04-04T00:16:32.840Z,1025.2261816999999
2023-04-04T00:17:32.831Z,1025.124590336
2023-04-04T00:18:32.673Z,1025.124590336
2023-04-04T00:19:32.658Z,1025.124590336
2023-04-04T00:20:32.652Z,1025.0229989719999
2023-04-04T00:21:32.689Z,1025.2261816999999
2023-04-04T00:22:32.642Z,1025.0229989719999
2023-04-04T00:23:32.634Z,1025.0229989719999
2023-04-04T00:24:32.649Z,1025.124590336
2023-04-04T00:25:32.681Z,1025.124590336
2023-04-04T00:26:34.297Z,1025.2261816999999
2023-04-04T00:27:32.625Z,1025.2261816999999
2023-04-04T00:28:32.657Z,1025.0229989719999
2023-04-04T00:29:32.644Z,1025.0229989719999
2023-04-04T00:30:32.662Z,1025.2261816999999
2023-04-04T00:31:32.725Z,1024.9214076079998
2023-04-04T00:32:32.678Z,1025.124590336
2023-04-04T00:33:32.707Z,1024.819816244
2023-04-04T00:34:32.682Z,1025.0229989719999
2023-04-04T00:35:32.744Z,1025.124590336
2023-04-04T00:36:32.692Z,1024.9214076079998
2023-04-04T00:37:32.724Z,1024.71822488
2023-04-04T00:38:32.649Z,1025.124590336
2023-04-04T00:39:32.667Z,1025.0229989719999
2023-04-04T00:40:32.680Z,1024.819816244
2023-04-04T00:41:32.672Z,1025.0229989719999
2023-04-04T00:42:32.643Z,1024.819816244
2023-04-04T00:43:32.642Z,1024.9214076079998
2023-04-04T00:44:32.660Z,1024.71822488
2023-04-04T00:45:32.685Z,1024.9214076079998
2023-04-04T00:46:32.630Z,1024.819816244
2023-04-04T00:47:32.785Z,1024.9214076079998
2023-04-04T00:48:32.665Z,1024.819816244
2023-04-04T00:49:32.733Z,1024.71822488
2023-04-04T00:50:32.637Z,1025.0229989719999
2023-04-04T00:51:32.707Z,1024.819816244
2023-04-04T00:52:32.674Z,1024.616633516
2023-04-04T00:53:32.669Z,1025.0229989719999
2023-04-04T00:54:32.652Z,1024.71822488
2023-04-04T00:55:32.648Z,1024.819816244
2023-04-04T00:56:32.633Z,1024.819816244
2023-04-04T00:57:32.689Z,1024.71822488
2023-04-04T00:58:32.662Z,1024.819816244
2023-04-04T00:59:32.712Z,1024.819816244
2023-04-04T01:00:32.649Z,1025.0229989719999
2023-04-04T01:01:32.774Z,1024.71822488
2023-04-04T01:02:32.764Z,1024.71822488
2023-04-04T01:03:32.665Z,1024.819816244
2023-04-04T01:04:32.687Z,1024.616633516
2023-04-04T01:05:32.763Z,1024.71822488
2023-04-04T01:06:32.680Z,1024.71822488
2023-04-04T01:07:32.720Z,1024.71822488
2023-04-04T01:08:32.636Z,1024.9214076079998
2023-04-04T01:09:32.651Z,1024.616633516
2023-04-04T01:10:32.645Z,1024.311859424
2023-04-04T01:11:32.662Z,1024.71822488
2023-04-04T01:12:32.655Z,1024.616633516
2023-04-04T01:13:32.673Z,1024.819816244
2023-04-04T01:14:32.654Z,1024.5150421520002
2023-04-04T01:15:32.658Z,1024.616633516
2023-04-04T01:16:32.738Z,1024.71822488
2023-04-04T01:17:32.684Z,1024.5150421520002
2023-04-04T01:18:32.649Z,1024.71822488
2023-04-04T01:19:32.666Z,1024.5150421520002
2023-04-04T01:20:32.638Z,1024.5150421520002
2023-04-04T01:21:32.649Z,1024.71822488
2023-04-04T01:22:32.655Z,1024.616633516
2023-04-04T01:23:32.664Z,1024.819816244
2023-04-04T01:24:32.635Z,1024.71822488
2023-04-04T01:25:32.640Z,1024.413450788
2023-04-04T01:26:32.624Z,1024.71822488
2023-04-04T01:27:32.646Z,1024.71822488
2023-04-04T01:28:32.624Z,1024.413450788
2023-04-04T01:29:32.640Z,1024.5150421520002
2023-04-04T01:30:32.673Z,1024.616633516
2023-04-04T01:31:32.668Z,1024.413450788
2023-04-04T01:32:32.661Z,1024.5150421520002
2023-04-04T01:33:32.640Z,1024.5150421520002
2023-04-04T01:34:32.636Z,1024.71822488
2023-04-04T01:35:32.655Z,1024.5150421520002
2023-04-04T01:36:32.657Z,1024.311859424
2023-04-04T01:37:32.630Z,1024.5150421520002
2023-04-04T01:38:32.630Z,1024.5150421520002
2023-04-04T01:39:32.694Z,1024.71822488
2023-04-04T01:40:32.735Z,1024.5150421520002
2023-04-04T01:41:32.761Z,1024.5150421520002
2023-04-04T01:42:32.804Z,1024.5150421520002
2023-04-04T01:43:32.780Z,1024.5150421520002
2023-04-04T01:44:32.785Z,1024.413450788
2023-04-04T01:45:32.794Z,1024.616633516
2023-04-04T01:46:32.861Z,1024.616633516
2023-04-04T01:47:32.756Z,1024.616633516
2023-04-04T01:48:32.729Z,1024.5150421520002
2023-04-04T01:49:32.786Z,1024.5150421520002
2023-04-04T01:50:32.733Z,1024.413450788
2023-04-04T01:51:32.768Z,1024.413450788
2023-04-04T01:52:32.756Z,1024.616633516
2023-04-04T01:53:32.742Z,1024.413450788
2023-04-04T01:54:32.752Z,1024.311859424
2023-04-04T01:55:32.775Z,1024.616633516
2023-04-04T01:56:32.730Z,1024.616633516
2023-04-04T01:57:32.645Z,1024.413450788
2023-04-04T01:58:32.627Z,1024.616633516
2023-04-04T01:59:32.692Z,1024.5150421520002
2023-04-04T02:00:32.664Z,1024.311859424
2023-04-04T02:01:32.658Z,1024.5150421520002
2023-04-04T02:02:32.699Z,1024.616633516
2023-04-04T02:03:32.699Z,1024.413450788
2023-04-04T02:04:32.704Z,1024.71822488
2023-04-04T02:05:32.671Z,1024.413450788
2023-04-04T02:06:32.631Z,1024.5150421520002
2023-04-04T02:07:32.645Z,1024.5150421520002
2023-04-04T02:08:32.638Z,1024.413450788
2023-04-04T02:09:32.642Z,1024.311859424
2023-04-04T02:10:32.655Z,1024.5150421520002
2023-04-04T02:11:32.672Z,1024.5150421520002
2023-04-04T02:12:32.632Z,1024.311859424
2023-04-04T02:13:32.630Z,1024.108676696
2023-04-04T02:14:32.621Z,1024.311859424
2023-04-04T02:15:32.641Z,1024.311859424
2023-04-04T02:16:32.632Z,1024.21026806
2023-04-04T02:17:32.658Z,1024.311859424
2023-04-04T02:18:32.648Z,1024.21026806
2023-04-04T02:19:32.636Z,1024.311859424
2023-04-04T02:20:32.662Z,1024.21026806
2023-04-04T02:21:32.697Z,1024.311859424
2023-04-04T02:22:32.632Z,1024.311859424
2023-04-04T02:23:32.613Z,1024.108676696
2023-04-04T02:24:32.703Z,1024.311859424
2023-04-04T02:25:32.617Z,1024.413450788
2023-04-04T02:26:32.696Z,1024.311859424
2023-04-04T02:27:32.634Z,1024.413450788
2023-04-04T02:28:32.670Z,1024.413450788
2023-04-04T02:29:32.660Z,1024.311859424
2023-04-04T02:30:32.647Z,1024.21026806
2023-04-04T02:31:32.734Z,1024.311859424
2023-04-04T02:32:32.704Z,1024.413450788
2023-04-04T02:33:32.619Z,1024.413450788
2023-04-04T02:34:32.637Z,1024.311859424
2023-04-04T02:35:32.635Z,1024.21026806
2023-04-04T02:36:32.683Z,1024.21026806
2023-04-04T02:37:32.652Z,1024.108676696
2023-04-04T02:38:32.624Z,1024.311859424
2023-04-04T02:39:32.614Z,1024.21026806
2023-04-04T02:40:32.703Z,1024.21026806
2023-04-04T02:41:32.624Z,1024.21026806
2023-04-04T02:42:32.678Z,1024.21026806
2023-04-04T02:43:32.621Z,1024.616633516
2023-04-04T02:44:32.687Z,1024.21026806
2023-04-04T02:45:32.620Z,1024.21026806
2023-04-04T02:46:32.646Z,1024.311859424
2023-04-04T02:47:32.654Z,1024.108676696
2023-04-04T02:48:32.680Z,1024.21026806
2023-04-04T02:49:32.643Z,1024.311859424
2023-04-04T02:50:32.639Z,1024.21026806
2023-04-04T02:51:32.696Z,1024.21026806
2023-04-04T02:52:32.620Z,1024.108676696
2023-04-04T02:53:32.673Z,1024.21026806
2023-04-04T02:54:32.634Z,1024.21026806
2023-04-04T02:55:32.645Z,1024.21026806
2023-04-04T02:56:32.654Z,1024.311859424
2023-04-04T02:57:32.675Z,1024.007085332
2023-04-04T02:58:32.658Z,1024.413450788
2023-04-04T02:59:32.622Z,1024.108676696
2023-04-04T03:00:32.706Z,1024.5150421520002
2023-04-04T03:01:32.827Z,1023.9393577559999
2023-04-04T03:02:32.767Z,1024.21026806
2023-04-04T03:03:32.738Z,1024.21026806
2023-04-04T03:04:32.788Z,1024.21026806
2023-04-04T03:05:32.597Z,1024.108676696
2023-04-04T03:06:32.661Z,1024.311859424
2023-04-04T03:07:32.635Z,1024.311859424
2023-04-04T03:08:32.650Z,1024.21026806
2023-04-04T03:09:32.644Z,1024.108676696
2023-04-04T03:10:32.618Z,1024.108676696
2023-04-04T03:11:32.705Z,1024.108676696
2023-04-04T03:12:32.748Z,1024.108676696
2023-04-04T03:13:32.747Z,1024.108676696
2023-04-04T03:14:32.756Z,1024.21026806
2023-04-04T03:15:32.773Z,1024.21026806
2023-04-04T03:16:32.725Z,1024.108676696
2023-04-04T03:17:32.677Z,1024.21026806
2023-04-04T03:18:32.667Z,1024.21026806
2023-04-04T03:19:32.755Z,1024.21026806
2023-04-04T03:20:32.645Z,1024.007085332
2023-04-04T03:21:32.645Z,1024.108676696
2023-04-04T03:22:32.639Z,1024.007085332
2023-04-04T03:23:32.622Z,1024.007085332
2023-04-04T03:24:32.609Z,1023.9393577559999
2023-04-04T03:25:32.665Z,1023.9393577559999
2023-04-04T03:26:32.763Z,1024.108676696
2023-04-04T03:27:32.616Z,1024.311859424
2023-04-04T03:28:32.798Z,1024.108676696
2023-04-04T03:29:32.633Z,1024.108676696
2023-04-04T03:30:32.761Z,1024.007085332
2023-04-04T03:31:33.140Z,1024.007085332
2023-04-04T03:32:32.796Z,1023.9393577559999
2023-04-04T03:33:32.624Z,1024.007085332
2023-04-04T03:34:32.875Z,1024.007085332
2023-04-04T03:35:32.762Z,1024.007085332
2023-04-04T03:36:32.740Z,1023.9393577559999
2023-04-04T03:37:32.700Z,1023.9393577559999
2023-04-04T03:38:32.682Z,1024.007085332
2023-04-04T03:39:32.812Z,1023.634583664
2023-04-04T03:40:32.753Z,1023.9393577559999
2023-04-04T03:41:32.791Z,1024.21026806
2023-04-04T03:42:32.787Z,1024.007085332
2023-04-04T03:43:32.722Z,1023.9393577559999
2023-04-04T03:44:33.553Z,1024.007085332
2023-04-04T03:45:32.860Z,1023.9393577559999
2023-04-04T03:46:34.640Z,1024.007085332
2023-04-04T03:47:32.737Z,1023.9393577559999
2023-04-04T03:48:32.705Z,1023.837766392
2023-04-04T03:49:32.660Z,1024.007085332
2023-04-04T03:50:32.637Z,1023.837766392
2023-04-04T03:51:32.649Z,1023.837766392
2023-04-04T03:52:32.651Z,1023.9393577559999
2023-04-04T03:53:32.629Z,1023.837766392
2023-04-04T03:54:32.639Z,1023.9393577559999
2023-04-04T03:55:32.627Z,1023.837766392
2023-04-04T03:56:32.656Z,1023.837766392
2023-04-04T03:57:32.642Z,1023.9393577559999
2023-04-04T03:58:32.633Z,1023.837766392
2023-04-04T03:59:32.696Z,1023.837766392
2023-04-04T04:00:32.625Z,1023.9393577559999
2023-04-04T04:01:32.641Z,1023.9393577559999
2023-04-04T04:02:32.701Z,1023.736175028
2023-04-04T04:03:32.709Z,1023.634583664
2023-04-04T04:04:32.678Z,1024.007085332
2023-04-04T04:05:32.665Z,1023.9393577559999
2023-04-04T04:06:32.680Z,1023.736175028
2023-04-04T04:07:32.589Z,1023.837766392
2023-04-04T04:08:32.621Z,1023.837766392
2023-04-04T04:09:32.628Z,1023.634583664
2023-04-04T04:10:32.629Z,1023.837766392
2023-04-04T04:11:32.611Z,1023.837766392
2023-04-04T04:12:32.587Z,1023.837766392
2023-04-04T04:13:32.606Z,1023.837766392
2023-04-04T04:14:32.620Z,1023.634583664
2023-04-04T04:15:32.699Z,1023.736175028
2023-04-04T04:16:32.663Z,1023.837766392
2023-04-04T04:17:32.662Z,1023.736175028
2023-04-04T04:18:32.640Z,1023.837766392
2023-04-04T04:19:32.710Z,1023.736175028
2023-04-04T04:20:32.623Z,1023.634583664
2023-04-04T04:21:32.649Z,1023.634583664
2023-04-04T04:22:32.594Z,1023.634583664
2023-04-04T04:23:32.611Z,1023.634583664
2023-04-04T04:24:32.626Z,1023.736175028
2023-04-04T04:25:32.642Z,1023.634583664
2023-04-04T04:26:32.589Z,1023.634583664
2023-04-04T04:27:32.611Z,1023.736175028
2023-04-04T04:28:33.189Z,1023.736175028
2023-04-04T04:29:32.658Z,1023.634583664
2023-04-04T04:30:32.626Z,1023.736175028
2023-04-04T04:31:32.659Z,1023.736175028
2023-04-04T04:32:32.626Z,1023.634583664
2023-04-04T04:33:32.636Z,1023.634583664
2023-04-04T04:34:32.614Z,1023.634583664
2023-04-04T04:35:32.622Z,1023.736175028
2023-04-04T04:36:32.670Z,1023.634583664
2023-04-04T04:37:32.696Z,1023.5329923
2023-04-04T04:38:32.614Z,1023.736175028
2023-04-04T04:39:32.636Z,1023.837766392
2023-04-04T04:40:32.654Z,1023.5329923
2023-04-04T04:41:32.660Z,1023.736175028
2023-04-04T04:42:32.620Z,1023.5329923
2023-04-04T04:43:32.634Z,1023.5329923
2023-04-04T04:44:32.615Z,1023.5329923
2023-04-04T04:45:32.671Z,1023.5329923
2023-04-04T04:46:32.697Z,1023.431400936
2023-04-04T04:47:32.632Z,1023.5329923
2023-04-04T04:48:32.629Z,1023.329809572
2023-04-04T04:49:32.881Z,1023.837766392
2023-04-04T04:50:32.645Z,1023.5329923
2023-04-04T04:51:32.734Z,1023.5329923
2023-04-04T04:52:32.625Z,1023.5329923
2023-04-04T04:53:32.631Z,1023.329809572
2023-04-04T04:54:32.602Z,1023.329809572
2023-04-04T04:55:32.622Z,1023.5329923
2023-04-04T04:56:32.623Z,1023.736175028
2023-04-04T04:57:32.646Z,1023.329809572
2023-04-04T04:58:32.601Z,1023.5329923
2023-04-04T04:59:32.617Z,1023.329809572
2023-04-04T05:00:32.639Z,1023.5329923
2023-04-04T05:01:32.760Z,1023.431400936
2023-04-04T05:02:32.737Z,1023.5329923
2023-04-04T05:03:32.608Z,1023.634583664
2023-04-04T05:04:32.648Z,1023.5329923
2023-04-04T05:05:32.655Z,1023.431400936
2023-04-04T05:06:32.675Z,1023.736175028
2023-04-04T05:07:32.624Z,1023.431400936
2023-04-04T05:08:32.613Z,1023.5329923
2023-04-04T05:09:32.625Z,1023.329809572
2023-04-04T05:10:32.650Z,1023.431400936
2023-04-04T05:11:32.611Z,1023.5329923
2023-04-04T05:12:32.854Z,1023.5329923
2023-04-04T05:13:32.648Z,1023.5329923
2023-04-04T05:14:32.601Z,1023.736175028
2023-04-04T05:15:32.635Z,1023.329809572
2023-04-04T05:16:32.805Z,1023.431400936
2023-04-04T05:17:32.695Z,1023.431400936
2023-04-04T05:18:32.629Z,1023.431400936
2023-04-04T05:19:32.623Z,1023.5329923
2023-04-04T05:20:32.624Z,1023.634583664
2023-04-04T05:21:32.655Z,1023.5329923
2023-04-04T05:22:32.590Z,1023.329809572
2023-04-04T05:23:32.783Z,1023.228218208
2023-04-04T05:24:32.605Z,1023.329809572
2023-04-04T05:25:32.606Z,1023.634583664
2023-04-04T05:26:32.628Z,1023.431400936
2023-04-04T05:27:32.610Z,1023.431400936
2023-04-04T05:28:32.651Z,1023.634583664
2023-04-04T05:29:32.633Z,1023.431400936
2023-04-04T05:30:32.649Z,1023.634583664
2023-04-04T05:31:32.639Z,1023.634583664
2023-04-04T05:32:32.733Z,1023.634583664
2023-04-04T05:33:32.643Z,1023.431400936
2023-04-04T05:34:32.612Z,1023.431400936
2023-04-04T05:35:32.677Z,1023.329809572
2023-04-04T05:36:32.648Z,1023.329809572
2023-04-04T05:37:34.756Z,1023.634583664
2023-04-04T05:38:32.643Z,1023.431400936
2023-04-04T05:39:32.633Z,1023.431400936
2023-04-04T05:40:32.608Z,1023.329809572
2023-04-04T05:41:32.608Z,1023.431400936
2023-04-04T05:42:32.611Z,1023.5329923
2023-04-04T05:43:32.621Z,1023.736175028
2023-04-04T05:44:32.638Z,1023.431400936
2023-04-04T05:45:32.649Z,1023.5329923
2023-04-04T05:46:32.830Z,1023.5329923
2023-04-04T05:47:32.643Z,1023.736175028
2023-04-04T05:48:32.680Z,1023.634583664
2023-04-04T05:49:32.646Z,1023.431400936
2023-04-04T05:50:32.627Z,1023.634583664
2023-04-04T05:51:32.623Z,1023.5329923
2023-04-04T05:52:32.639Z,1023.431400936
2023-04-04T05:53:32.640Z,1023.431400936
2023-04-04T05:54:32.623Z,1023.634583664
2023-04-04T05:55:32.707Z,1023.329809572
2023-04-04T05:56:32.622Z,1023.431400936
2023-04-04T05:57:32.614Z,1023.431400936
2023-04-04T05:58:32.678Z,1023.5329923
2023-04-04T05:59:32.641Z,1023.431400936
2023-04-04T06:00:32.644Z,1023.431400936
2023-04-04T06:01:32.614Z,1023.329809572
2023-04-04T06:02:32.771Z,1023.329809572
2023-04-04T06:03:32.792Z,1023.431400936
2023-04-04T06:04:32.612Z,1023.431400936
2023-04-04T06:05:32.715Z,1023.1266268439999
2023-04-04T06:06:32.642Z,1023.5329923
2023-04-04T06:07:32.666Z,1023.329809572
2023-04-04T06:08:37.586Z,1023.431400936
2023-04-04T06:09:32.586Z,1023.431400936
2023-04-04T06:10:32.627Z,1023.431400936
2023-04-04T06:11:32.614Z,1023.228218208
2023-04-04T06:12:32.619Z,1023.329809572
2023-04-04T06:13:32.646Z,1023.329809572
2023-04-04T06:14:32.676Z,1023.1266268439999
2023-04-04T06:15:32.635Z,1023.228218208
2023-04-04T06:16:32.675Z,1023.228218208
2023-04-04T06:17:32.643Z,1023.329809572
2023-04-04T06:18:32.587Z,1023.431400936
2023-04-04T06:19:32.612Z,1023.431400936
2023-04-04T06:20:32.639Z,1023.329809572
2023-04-04T06:21:32.599Z,1023.431400936
2023-04-04T06:22:32.628Z,1023.329809572
2023-04-04T06:23:32.661Z,1023.431400936
2023-04-04T06:24:32.628Z,1023.431400936
2023-04-04T06:25:32.623Z,1023.431400936
2023-04-04T06:26:32.637Z,1023.431400936
2023-04-04T06:27:32.642Z,1023.329809572
2023-04-04T06:28:32.622Z,1023.5329923
2023-04-04T06:29:32.624Z,1023.329809572
2023-04-04T06:30:32.634Z,1023.431400936
2023-04-04T06:31:32.632Z,1023.329809572
2023-04-04T06:32:32.713Z,1023.5329923
2023-04-04T06:33:32.615Z,1023.5329923
2023-04-04T06:34:32.767Z,1023.634583664
2023-04-04T06:35:32.618Z,1023.634583664
2023-04-04T06:36:32.676Z,1023.634583664
2023-04-04T06:37:32.584Z,1023.5329923
2023-04-04T06:38:32.641Z,1023.736175028
2023-04-04T06:39:32.600Z,1023.634583664
2023-04-04T06:40:32.607Z,1023.5329923
2023-04-04T06:41:32.663Z,1023.5329923
2023-04-04T06:42:32.608Z,1023.5329923
2023-04-04T06:43:32.616Z,1023.431400936
2023-04-04T06:44:32.602Z,1023.736175028
2023-04-04T06:45:32.640Z,1023.5329923
2023-04-04T06:46:32.648Z,1023.837766392
2023-04-04T06:47:32.687Z,1023.431400936
2023-04-04T06:48:32.603Z,1023.5329923
2023-04-04T06:49:32.583Z,1023.431400936
2023-04-04T06:50:32.674Z,1023.329809572
2023-04-04T06:51:32.636Z,1023.228218208
2023-04-04T06:52:32.622Z,1023.329809572
2023-04-04T06:53:32.631Z,1023.431400936
2023-04-04T06:54:32.597Z,1023.329809572
2023-04-04T06:55:32.594Z,1023.329809572
2023-04-04T06:56:32.606Z,1023.329809572
2023-04-04T06:57:32.600Z,1023.329809572
2023-04-04T06:58:32.650Z,1023.329809572
2023-04-04T06:59:32.690Z,1023.431400936
2023-04-04T07:00:32.602Z,1023.1266268439999
2023-04-04T07:01:32.691Z,1023.228218208
2023-04-04T07:02:32.726Z,1023.228218208
2023-04-04T07:03:32.614Z,1023.228218208
2023-04-04T07:04:32.640Z,1023.329809572
2023-04-04T07:05:32.615Z,1023.5329923
2023-04-04T07:06:32.678Z,1023.431400936
2023-04-04T07:07:32.641Z,1023.329809572
2023-04-04T07:08:36.113Z,1023.228218208
2023-04-04T07:09:32.737Z,1023.431400936
2023-04-04T07:10:32.625Z,1023.431400936
2023-04-04T07:11:32.598Z,1023.329809572
2023-04-04T07:12:32.591Z,1023.329809572
2023-04-04T07:13:32.606Z,1023.431400936
2023-04-04T07:14:32.607Z,1023.329809572
2023-04-04T07:15:32.582Z,1023.329809572
2023-04-04T07:16:32.684Z,1023.228218208
2023-04-04T07:17:32.794Z,1023.431400936
2023-04-04T07:18:32.589Z,1023.228218208
2023-04-04T07:19:32.627Z,1023.228218208
2023-04-04T07:20:32.607Z,1023.228218208
2023-04-04T07:21:32.660Z,1023.431400936
2023-04-04T07:22:32.648Z,1023.5329923
2023-04-04T07:23:32.629Z,1023.431400936
2023-04-04T07:24:32.607Z,1023.329809572
2023-04-04T07:25:32.627Z,1023.431400936
2023-04-04T07:26:32.611Z,1023.431400936
2023-04-04T07:27:32.619Z,1023.431400936
2023-04-04T07:28:32.597Z,1023.329809572
2023-04-04T07:29:32.576Z,1023.329809572
2023-04-04T07:30:32.617Z,1023.431400936
2023-04-04T07:31:32.668Z,1023.228218208
2023-04-04T07:32:32.622Z,1023.228218208
2023-04-04T07:33:32.601Z,1023.02503548
2023-04-04T07:34:32.603Z,1023.228218208
2023-04-04T07:35:32.645Z,1023.431400936
2023-04-04T07:36:32.614Z,1023.329809572
2023-04-04T07:37:32.624Z,1023.228218208
2023-04-04T07:38:32.613Z,1023.329809572
2023-04-04T07:39:32.614Z,1023.228218208
2023-04-04T07:40:32.581Z,1023.228218208
2023-04-04T07:41:32.600Z,1023.228218208
2023-04-04T07:42:32.605Z,1023.228218208
2023-04-04T07:43:32.593Z,1023.1266268439999
2023-04-04T07:44:32.601Z,1023.431400936
2023-04-04T07:45:32.580Z,1023.228218208
2023-04-04T07:46:32.809Z,1023.228218208
2023-04-04T07:47:32.661Z,1023.02503548
2023-04-04T07:48:32.636Z,1023.329809572
2023-04-04T07:49:32.606Z,1023.1266268439999
2023-04-04T07:50:32.598Z,1023.329809572
2023-04-04T07:51:32.596Z,1023.228218208
2023-04-04T07:52:32.627Z,1023.1266268439999
2023-04-04T07:53:32.613Z,1023.228218208
2023-04-04T07:54:32.630Z,1023.329809572
2023-04-04T07:55:32.634Z,1023.228218208
2023-04-04T07:56:32.610Z,1023.329809572
2023-04-04T07:57:32.574Z,1023.329809572
2023-04-04T07:58:32.610Z,1023.228218208
2023-04-04T07:59:32.573Z,1023.228218208
2023-04-04T08:00:32.619Z,1023.1266268439999
2023-04-04T08:01:32.569Z,1023.431400936
2023-04-04T08:02:32.741Z,1023.5329923
2023-04-04T08:03:33.208Z,1023.228218208
2023-04-04T08:04:32.659Z,1023.5329923
2023-04-04T08:05:32.643Z,1023.431400936
2023-04-04T08:06:32.605Z,1023.329809572
2023-04-04T08:07:32.601Z,1023.329809572
2023-04-04T08:08:32.595Z,1023.329809572
2023-04-04T08:09:32.569Z,1023.228218208
2023-04-04T08:10:32.619Z,1023.228218208
2023-04-04T08:11:32.586Z,1023.431400936
2023-04-04T08:12:32.577Z,1023.329809572
2023-04-04T08:13:32.682Z,1023.329809572
2023-04-04T08:14:32.612Z,1023.228218208
2023-04-04T08:15:32.587Z,1023.329809572
2023-04-04T08:16:32.832Z,1023.431400936
2023-04-04T08:17:32.593Z,1023.329809572
2023-04-04T08:18:32.588Z,1023.431400936
2023-04-04T08:19:32.581Z,1023.634583664
2023-04-04T08:20:32.560Z,1023.5329923
2023-04-04T08:21:32.606Z,1023.5329923
2023-04-04T08:22:32.607Z,1023.431400936
2023-04-04T08:23:32.684Z,1023.5329923
2023-04-04T08:24:32.600Z,1023.329809572
2023-04-04T08:25:32.590Z,1023.431400936
2023-04-04T08:26:32.581Z,1023.329809572
2023-04-04T08:27:32.583Z,1023.5329923
2023-04-04T08:28:32.624Z,1023.228218208
2023-04-04T08:29:32.593Z,1023.431400936
2023-04-04T08:30:32.597Z,1023.5329923
2023-04-04T08:31:32.620Z,1023.431400936
2023-04-04T08:32:32.583Z,1023.329809572
2023-04-04T08:33:44.653Z,1023.634583664
2023-04-04T08:34:32.587Z,1023.431400936
2023-04-04T08:35:32.624Z,1023.634583664
2023-04-04T08:36:32.603Z,1023.5329923
2023-04-04T08:37:32.591Z,1023.5329923
2023-04-04T08:38:32.584Z,1023.634583664
2023-04-04T08:39:32.600Z,1023.634583664
2023-04-04T08:40:33.794Z,1023.431400936
2023-04-04T08:41:32.590Z,1023.634583664
2023-04-04T08:42:32.580Z,1023.634583664
2023-04-04T08:43:32.651Z,1023.634583664
2023-04-04T08:44:32.610Z,1023.634583664
2023-04-04T08:45:32.590Z,1023.431400936
2023-04-04T08:46:32.724Z,1023.431400936
2023-04-04T08:47:32.620Z,1023.5329923
2023-04-04T08:48:32.674Z,1023.431400936
2023-04-04T08:49:32.587Z,1023.5329923
2023-04-04T08:50:32.605Z,1023.431400936
2023-04-04T08:51:32.607Z,1023.5329923
2023-04-04T08:52:32.612Z,1023.5329923
2023-04-04T08:53:32.598Z,1023.634583664
2023-04-04T08:54:32.584Z,1023.431400936
2023-04-04T08:55:32.661Z,1023.431400936
2023-04-04T08:56:32.582Z,1023.431400936
2023-04-04T08:57:32.574Z,1023.431400936
2023-04-04T08:58:32.578Z,1023.329809572
2023-04-04T08:59:32.663Z,1023.5329923
2023-04-04T09:00:32.607Z,1023.329809572
2023-04-04T09:01:32.690Z,1023.329809572
2023-04-04T09:02:32.702Z,1023.5329923
2023-04-04T09:03:32.663Z,1023.431400936
2023-04-04T09:04:32.573Z,1023.431400936
2023-04-04T09:05:32.635Z,1023.329809572
2023-04-04T09:06:32.584Z,1023.329809572
2023-04-04T09:07:32.578Z,1023.02503548
2023-04-04T09:08:32.617Z,1023.431400936
2023-04-04T09:09:32.600Z,1023.5329923
2023-04-04T09:10:32.658Z,1023.431400936
2023-04-04T09:11:32.600Z,1023.329809572
2023-04-04T09:12:32.595Z,1023.329809572
2023-04-04T09:13:32.644Z,1023.329809572
2023-04-04T09:14:32.581Z,1023.431400936
2023-04-04T09:15:32.661Z,1023.329809572
2023-04-04T09:16:32.723Z,1023.431400936
2023-04-04T09:17:32.717Z,1023.228218208
2023-04-04T09:18:32.643Z,1023.5329923
2023-04-04T09:19:32.581Z,1023.431400936
2023-04-04T09:20:32.589Z,1023.431400936
2023-04-04T09:21:32.669Z,1023.329809572
2023-04-04T09:22:32.674Z,1023.431400936
2023-04-04T09:23:32.620Z,1023.431400936
2023-04-04T09:24:32.576Z,1023.5329923
2023-04-04T09:25:32.578Z,1023.329809572
2023-04-04T09:26:32.591Z,1023.329809572
2023-04-04T09:27:32.595Z,1023.329809572
2023-04-04T09:28:32.577Z,1023.329809572
2023-04-04T09:29:32.587Z,1023.329809572
2023-04-04T09:30:32.586Z,1023.329809572
2023-04-04T09:31:32.611Z,1023.329809572
2023-04-04T09:32:32.676Z,1023.5329923
2023-04-04T09:33:32.619Z,1023.329809572
2023-04-04T09:34:32.596Z,1023.1266268439999
2023-04-04T09:35:32.613Z,1023.431400936
2023-04-04T09:36:32.657Z,1023.329809572
2023-04-04T09:37:32.609Z,1023.431400936
2023-04-04T09:38:32.626Z,1023.329809572
2023-04-04T09:39:32.678Z,1023.228218208
2023-04-04T09:40:32.642Z,1023.431400936
2023-04-04T09:41:32.600Z,1023.228218208
2023-04-04T09:42:32.602Z,1023.329809572
2023-04-04T09:43:34.388Z,1023.228218208
2023-04-04T09:44:32.598Z,1023.1266268439999
2023-04-04T09:45:32.731Z,1023.228218208
2023-04-04T09:46:32.640Z,1023.228218208
2023-04-04T09:47:32.625Z,1023.228218208
2023-04-04T09:48:32.702Z,1023.431400936
2023-04-04T09:49:32.624Z,1023.329809572
2023-04-04T09:50:32.627Z,1023.02503548
2023-04-04T09:51:32.608Z,1023.228218208
2023-04-04T09:52:32.610Z,1023.431400936
2023-04-04T09:53:32.593Z,1023.228218208
2023-04-04T09:54:33.074Z,1023.228218208